createdAt,value
2022-11-22T00:02:03.743Z,50.80
2022-11-22T00:04:33.407Z,50.65
2022-11-22T00:07:03.660Z,47.58
2022-11-22T00:09:32.960Z,46.85
2022-11-22T00:12:04.585Z,52.83
2022-11-22T00:14:34.388Z,52.30
2022-11-22T00:17:04.098Z,53.27
2022-11-22T00:19:33.768Z,52.30
2022-11-22T00:22:03.769Z,59.53
2022-11-22T00:24:33.084Z,58.20
2022-11-22T00:27:04.468Z,55.50
2022-11-22T00:32:03.679Z,57.15
2022-11-22T00:34:33.074Z,58.70
2022-11-22T00:37:03.322Z,56.60
2022-11-22T00:39:32.976Z,51.78
2022-11-22T00:42:04.902Z,50.67
2022-11-22T00:47:03.927Z,48.28
2022-11-22T00:49:33.359Z,48.58
2022-11-22T00:52:03.635Z,48.70
2022-11-22T00:54:33.161Z,52.05
2022-11-22T00:57:04.615Z,54.17
2022-11-22T00:59:34.208Z,49.85
2022-11-22T01:02:04.243Z,55.83
2022-11-22T01:04:33.902Z,56.75
2022-11-22T01:07:04.524Z,56.70
2022-11-22T01:09:33.991Z,54.53
2022-11-22T01:12:05.837Z,53.73
2022-11-22T01:17:04.704Z,52.80
2022-11-22T01:19:34.365Z,53.80
2022-11-22T01:22:04.271Z,55.20
2022-11-22T01:24:33.661Z,53.90
2022-11-22T01:27:05.311Z,54.28
2022-11-22T01:29:34.851Z,55.20
2022-11-22T01:32:05.345Z,51.08
2022-11-22T01:34:35.307Z,52.83
2022-11-22T01:37:05.028Z,52.33
2022-11-22T01:39:34.931Z,53.13
2022-11-22T01:42:06.463Z,53.45
2022-11-22T01:44:35.989Z,54.90
2022-11-22T01:47:11.511Z,51.63
2022-11-22T01:49:44.175Z,50.58
2022-11-22T01:52:17.876Z,48.92
2022-11-22T01:54:50.119Z,50.28
2022-11-22T01:57:25.756Z,49.90
2022-11-22T01:59:59.892Z,52.13
2022-11-22T02:02:30.629Z,51.55
2022-11-22T02:05:03.529Z,52.75
2022-11-22T02:07:38.630Z,50.55
2022-11-22T02:10:08.644Z,51.60
2022-11-22T02:12:40.324Z,52.92
2022-11-22T02:15:10.877Z,50.70
2022-11-22T02:17:40.897Z,51.95
2022-11-22T02:20:11.503Z,56.78
2022-11-22T02:22:50.078Z,50.92
2022-11-22T02:25:28.749Z,53.28
2022-11-22T02:28:00.960Z,56.95
2022-11-22T02:30:30.436Z,55.35
2022-11-22T02:33:00.791Z,55.30
2022-11-22T02:35:31.498Z,54.83
2022-11-22T02:38:05.066Z,51.33
2022-11-22T02:40:38.838Z,56.88
2022-11-22T02:43:12.759Z,50.83
2022-11-22T02:45:42.249Z,56.47
2022-11-22T02:48:14.356Z,50.03
2022-11-22T02:50:43.948Z,56.15
2022-11-22T02:53:15.079Z,52.15
2022-11-22T02:55:44.533Z,56.10
2022-11-22T02:58:15.934Z,53.47
2022-11-22T03:00:45.461Z,56.47
2022-11-22T03:03:15.681Z,55.10
2022-11-22T03:05:45.188Z,51.35
2022-11-22T03:08:15.036Z,53.75
2022-11-22T03:10:44.481Z,53.03
2022-11-22T03:13:15.930Z,55.30
2022-11-22T03:15:48.198Z,51.45
2022-11-22T03:18:17.966Z,52.28
2022-11-22T03:20:47.359Z,51.63
2022-11-22T03:23:17.415Z,50.67
2022-11-22T03:25:46.709Z,51.65
2022-11-22T03:28:17.767Z,51.78
2022-11-22T03:30:47.034Z,51.25
2022-11-22T03:33:16.833Z,54.67
2022-11-22T03:35:46.157Z,51.72
2022-11-22T03:38:16.086Z,51.97
2022-11-22T03:40:48.426Z,51.92
2022-11-22T03:43:19.839Z,51.80
2022-11-22T03:48:19.164Z,51.40
2022-11-22T03:50:48.895Z,55.08
2022-11-22T03:53:18.922Z,53.20
2022-11-22T03:55:48.234Z,54.85
2022-11-22T03:58:19.403Z,54.17
2022-11-22T04:00:49.022Z,57.75
2022-11-22T04:03:18.875Z,54.50
2022-11-22T04:05:48.124Z,56.72
2022-11-22T04:08:18.540Z,54.47
2022-11-22T04:10:49.799Z,56.25
2022-11-22T04:13:21.463Z,55.30
2022-11-22T04:15:49.627Z,55.45
2022-11-22T04:18:19.777Z,55.38
2022-11-22T04:21:06.380Z,60.42
2022-11-22T04:23:36.435Z,52.90
2022-11-22T04:26:04.830Z,55.10
2022-11-22T04:29:07.627Z,54.13
2022-11-22T04:31:42.968Z,53.25
2022-11-22T04:34:12.678Z,53.88
2022-11-22T04:36:41.942Z,54.83
2022-11-22T04:39:11.743Z,56.63
2022-11-22T04:41:41.008Z,54.00
2022-11-22T04:44:30.311Z,55.92
2022-11-22T04:46:59.767Z,59.20
2022-11-22T04:49:29.900Z,58.53
2022-11-22T04:52:16.766Z,56.17
2022-11-22T04:54:46.719Z,54.90
2022-11-22T04:57:15.959Z,54.03
2022-11-22T04:59:47.542Z,56.47
2022-11-22T05:02:16.848Z,54.75
2022-11-22T05:04:50.649Z,52.95
2022-11-22T05:07:20.432Z,51.63
2022-11-22T05:09:50.454Z,56.22
2022-11-22T05:12:20.114Z,51.72
2022-11-22T05:14:51.332Z,51.45
2022-11-22T05:17:20.887Z,53.22
2022-11-22T05:19:50.965Z,49.65
2022-11-22T05:22:40.240Z,54.25
2022-11-22T05:25:09.776Z,52.58
2022-11-22T05:27:39.193Z,59.78
2022-11-22T05:30:11.445Z,51.73
2022-11-22T05:32:40.884Z,48.60
2022-11-22T05:35:11.198Z,51.90
2022-11-22T05:37:40.813Z,48.30
2022-11-22T05:40:12.054Z,51.33
2022-11-22T05:42:41.367Z,53.00
2022-11-22T05:45:13.543Z,51.45
2022-11-22T05:47:42.950Z,51.05
2022-11-22T05:50:12.622Z,51.38
2022-11-22T05:52:41.909Z,50.25
2022-11-22T05:55:12.613Z,52.85
2022-11-22T05:57:42.135Z,53.90
2022-11-22T06:00:14.534Z,50.42
2022-11-22T06:02:43.960Z,52.42
2022-11-22T06:05:13.843Z,53.05
2022-11-22T06:07:43.231Z,51.58
2022-11-22T06:10:13.468Z,52.67
2022-11-22T06:12:42.999Z,52.30
2022-11-22T06:15:14.729Z,50.87
2022-11-22T06:20:14.242Z,46.58
2022-11-22T06:22:43.936Z,51.22
2022-11-22T06:25:14.383Z,53.65
2022-11-22T06:27:43.972Z,53.05
2022-11-22T06:30:16.499Z,54.40
2022-11-22T06:32:45.787Z,56.20
2022-11-22T06:35:15.657Z,52.72
2022-11-22T06:37:44.983Z,54.50
2022-11-22T06:40:16.915Z,55.03
2022-11-22T06:42:46.302Z,59.38
2022-11-22T06:45:18.372Z,55.43
2022-11-22T06:47:47.828Z,59.47
2022-11-22T06:50:21.680Z,55.45
2022-11-22T06:52:53.600Z,58.47
2022-11-22T06:55:49.058Z,60.10
2022-11-22T06:58:13.059Z,63.03
2022-11-22T07:00:44.208Z,57.95
2022-11-22T07:03:13.659Z,59.67
2022-11-22T07:05:51.866Z,61.60
2022-11-22T07:08:21.371Z,61.58
2022-11-22T07:10:51.555Z,57.53
2022-11-22T07:13:21.280Z,57.95
2022-11-22T07:16:06.369Z,62.55
2022-11-22T07:18:35.722Z,64.38
2022-11-22T07:21:12.459Z,61.37
2022-11-22T07:23:43.937Z,62.90
2022-11-22T07:26:14.872Z,57.30
2022-11-22T07:28:45.287Z,62.03
2022-11-22T07:31:18.769Z,62.10
2022-11-22T07:33:48.698Z,65.78
2022-11-22T07:36:21.004Z,60.83
2022-11-22T07:38:50.873Z,60.15
2022-11-22T07:41:22.548Z,60.83
2022-11-22T07:43:53.293Z,63.42
2022-11-22T07:46:29.589Z,63.85
2022-11-22T07:48:59.533Z,60.58
2022-11-22T07:51:30.033Z,65.18
2022-11-22T07:54:00.004Z,65.13
2022-11-22T07:56:29.932Z,68.10
2022-11-22T07:58:59.325Z,65.68
2022-11-22T08:01:30.571Z,60.35
2022-11-22T08:04:00.042Z,62.33
2022-11-22T08:06:29.993Z,61.63
2022-11-22T08:09:02.191Z,60.05
2022-11-22T08:11:32.687Z,64.88
2022-11-22T08:14:01.980Z,64.13
2022-11-22T08:16:33.403Z,65.47
2022-11-22T08:19:02.929Z,64.55
2022-11-22T08:21:32.563Z,68.18
2022-11-22T08:24:01.890Z,62.88
2022-11-22T08:26:33.154Z,65.97
2022-11-22T08:29:07.731Z,66.10
2022-11-22T08:31:41.739Z,68.15
2022-11-22T08:34:11.491Z,72.45
2022-11-22T08:36:41.066Z,67.53
2022-11-22T08:39:10.515Z,66.18
2022-11-22T08:41:40.350Z,71.45
2022-11-22T08:44:09.976Z,69.18
2022-11-22T08:46:41.532Z,62.20
2022-11-22T08:49:12.916Z,71.68
2022-11-22T08:51:45.240Z,68.88
2022-11-22T08:54:15.630Z,68.10
2022-11-22T08:56:45.562Z,63.30
2022-11-22T08:59:14.960Z,69.32
2022-11-22T09:01:46.292Z,69.68
2022-11-22T09:09:37.648Z,63.85
2022-11-22T09:12:12.872Z,61.80
2022-11-22T09:14:42.530Z,63.90
2022-11-22T09:17:17.900Z,58.72
2022-11-22T09:19:47.724Z,60.97
2022-11-22T09:22:17.345Z,62.15
2022-11-22T09:24:46.589Z,61.85
2022-11-22T09:27:16.697Z,59.45
2022-11-22T09:29:45.999Z,58.58
2022-11-22T09:32:17.176Z,66.13
2022-11-22T09:34:46.681Z,59.22
2022-11-22T09:37:18.814Z,57.42
2022-11-22T09:39:48.883Z,58.08
2022-11-22T09:42:46.295Z,53.10
2022-11-22T09:45:37.227Z,55.22
2022-11-22T09:48:25.416Z,56.08
2022-11-22T09:51:03.076Z,54.92
2022-11-22T09:53:40.268Z,54.85
2022-11-22T09:56:14.550Z,56.08
2022-11-22T09:58:49.374Z,52.00
2022-11-22T10:01:21.913Z,53.30
2022-11-22T10:03:57.639Z,54.92
2022-11-22T10:06:30.984Z,51.88
2022-11-22T10:09:11.027Z,53.35
2022-11-22T10:11:45.268Z,55.53
2022-11-22T10:14:31.887Z,54.28
2022-11-22T10:17:10.011Z,54.60
2022-11-22T10:19:46.698Z,52.33
2022-11-22T10:22:16.621Z,53.72
2022-11-22T10:24:46.660Z,50.00
2022-11-22T10:27:16.983Z,47.10
2022-11-22T10:32:26.396Z,45.58
2022-11-22T10:35:20.639Z,42.13
2022-11-22T10:37:58.917Z,41.60
2022-11-22T10:40:38.839Z,36.45
2022-11-22T10:43:26.254Z,37.75
2022-11-22T10:46:03.923Z,34.58
2022-11-22T10:48:40.360Z,39.38
2022-11-22T10:51:22.257Z,37.45
2022-11-22T10:54:03.687Z,36.45
2022-11-22T10:56:38.035Z,33.13
2022-11-22T10:59:36.370Z,33.90
2022-11-22T11:02:22.599Z,32.30
2022-11-22T11:04:54.597Z,33.50
2022-11-22T11:07:27.219Z,31.65
2022-11-22T11:10:11.570Z,34.70
2022-11-22T11:12:46.844Z,33.40
2022-11-22T11:15:22.575Z,31.85
2022-11-22T11:17:59.680Z,35.35
2022-11-22T11:20:32.064Z,32.13
2022-11-22T11:23:18.948Z,34.88
2022-11-22T11:25:49.911Z,34.13
2022-11-22T11:28:22.745Z,32.38
2022-11-22T11:30:54.377Z,34.40
2022-11-22T11:33:28.733Z,33.10
2022-11-22T11:36:03.351Z,35.63
2022-11-22T11:38:37.699Z,33.17
2022-11-22T11:41:28.174Z,37.72
2022-11-22T11:43:59.567Z,34.63
2022-11-22T11:49:11.218Z,36.83
2022-11-22T11:51:42.667Z,31.67
2022-11-22T11:54:17.332Z,36.60
2022-11-22T11:56:50.134Z,37.78
2022-11-22T11:59:21.250Z,37.92
2022-11-22T12:02:00.202Z,38.83
2022-11-22T12:04:32.863Z,36.20
2022-11-22T12:07:05.833Z,41.53
2022-11-22T12:09:44.631Z,40.50
2022-11-22T12:12:25.665Z,39.35
2022-11-22T12:15:11.105Z,41.10
2022-11-22T12:17:50.827Z,40.05
2022-11-22T12:20:25.127Z,40.20
2022-11-22T12:23:10.229Z,44.70
2022-11-22T12:25:42.785Z,42.67
2022-11-22T12:28:20.803Z,38.60
2022-11-22T12:30:57.684Z,43.95
2022-11-22T12:33:32.269Z,41.15
2022-11-22T12:36:05.503Z,45.88
2022-11-22T12:38:38.206Z,43.53
2022-11-22T12:41:13.953Z,43.15
2022-11-22T12:43:48.793Z,39.22
2022-11-22T12:46:25.932Z,41.20
2022-11-22T12:48:58.808Z,38.80
2022-11-22T12:51:36.292Z,41.83
2022-11-22T12:54:10.994Z,41.72
2022-11-22T12:56:49.994Z,40.78
2022-11-22T12:59:26.526Z,41.60
2022-11-22T13:02:05.176Z,40.92
2022-11-22T13:04:47.107Z,37.97
2022-11-22T13:07:21.692Z,39.38
2022-11-22T13:10:00.361Z,38.63
2022-11-22T13:12:35.999Z,40.88
2022-11-22T13:15:05.859Z,37.45
2022-11-22T13:17:38.942Z,38.13
2022-11-22T13:20:16.537Z,38.85
2022-11-22T13:22:59.587Z,39.78
2022-11-22T13:25:48.872Z,38.28
2022-11-22T13:28:23.442Z,39.83
2022-11-22T13:31:15.830Z,42.83
2022-11-22T13:33:55.485Z,41.15
2022-11-22T13:36:46.222Z,40.20
2022-11-22T13:39:20.895Z,40.55
2022-11-22T13:42:06.454Z,46.85
2022-11-22T13:44:51.334Z,41.70
2022-11-22T13:47:41.393Z,41.20
2022-11-22T13:50:50.400Z,41.08
2022-11-22T13:53:29.134Z,40.75
2022-11-22T13:56:00.900Z,45.60
2022-11-22T13:58:56.244Z,41.38
2022-11-22T14:01:58.440Z,43.92
2022-11-22T14:04:45.908Z,45.17
2022-11-22T14:07:37.998Z,43.40
2022-11-22T14:10:27.664Z,41.58
2022-11-22T14:13:27.944Z,44.53
2022-11-22T14:16:16.095Z,42.85
2022-11-22T14:18:58.977Z,43.80
2022-11-22T14:21:50.966Z,42.80
2022-11-22T14:24:33.516Z,43.42
2022-11-22T14:27:11.404Z,45.83
2022-11-22T14:30:09.197Z,50.25
2022-11-22T14:32:53.901Z,46.58
2022-11-22T14:35:31.501Z,48.42
2022-11-22T14:38:29.908Z,47.75
2022-11-22T14:41:36.595Z,47.65
2022-11-22T14:44:09.876Z,46.22
2022-11-22T14:46:53.075Z,45.63
2022-11-22T14:49:33.495Z,46.47
2022-11-22T14:52:07.049Z,41.67
2022-11-22T14:54:47.285Z,42.60
2022-11-22T15:00:15.381Z,40.03
2022-11-22T15:03:35.501Z,41.63
2022-11-22T15:09:19.920Z,41.55
2022-11-22T15:09:50.845Z,39.10
2022-11-22T15:12:37.887Z,38.45
2022-11-22T15:57:30.186Z,41.33
2022-11-22T16:00:00.060Z,42.35
2022-11-22T16:02:32.700Z,46.42
2022-11-22T16:06:04.581Z,41.85
2022-11-22T16:07:57.046Z,42.58
2022-11-22T16:13:13.699Z,41.40
2022-11-22T16:15:43.072Z,46.05
2022-11-22T16:18:17.597Z,39.78
2022-11-22T16:21:01.781Z,41.88
2022-11-22T16:23:33.502Z,44.17
2022-11-22T16:26:19.907Z,40.83
2022-11-22T16:28:52.837Z,43.85
2022-11-22T16:31:24.899Z,42.63
2022-11-22T16:33:56.802Z,44.67
2022-11-22T16:36:29.795Z,43.55
2022-11-22T16:39:00.000Z,43.20
2022-11-22T16:41:30.863Z,41.10
2022-11-22T16:44:05.587Z,41.45
2022-11-22T16:46:34.978Z,41.40
2022-11-22T16:49:13.100Z,40.65
2022-11-22T16:51:45.023Z,38.78
2022-11-22T16:54:17.699Z,37.80
2022-11-22T16:56:47.836Z,35.17
2022-11-22T16:59:19.387Z,34.83
2022-11-22T17:01:51.498Z,31.02
2022-11-22T17:04:25.509Z,34.08
2022-11-22T17:06:55.354Z,34.90
2022-11-22T17:09:25.217Z,31.60
2022-11-22T17:11:54.704Z,34.00
2022-11-22T17:14:26.572Z,32.53
2022-11-22T17:16:55.811Z,30.70
2022-11-22T17:19:54.476Z,32.33
2022-11-22T17:22:17.200Z,28.40
2022-11-22T17:24:47.042Z,29.40
2022-11-22T17:27:16.888Z,28.50
2022-11-22T17:29:50.750Z,27.07
2022-11-22T17:32:20.551Z,27.83
2022-11-22T17:34:50.311Z,30.35
2022-11-22T17:37:19.568Z,31.50
2022-11-22T17:39:53.185Z,30.63
2022-11-22T17:42:24.328Z,29.70
2022-11-22T17:44:56.175Z,29.67
2022-11-22T17:47:25.650Z,28.52
2022-11-22T17:49:55.584Z,31.75
2022-11-22T17:52:25.506Z,29.00
2022-11-22T17:54:58.381Z,30.58
2022-11-22T17:57:31.535Z,33.38
2022-11-22T18:00:02.896Z,30.70
2022-11-22T18:02:32.334Z,29.85
2022-11-22T18:05:06.063Z,30.33
2022-11-22T18:07:36.392Z,32.63
2022-11-22T18:10:08.046Z,30.58
2022-11-22T18:12:42.425Z,30.52
2022-11-22T18:15:18.463Z,30.00
2022-11-22T18:17:47.930Z,33.08
2022-11-22T18:20:18.220Z,32.90
2022-11-22T18:22:47.605Z,32.03
2022-11-22T18:25:17.495Z,32.45
2022-11-22T18:27:47.044Z,32.85
2022-11-22T18:30:19.095Z,32.42
2022-11-22T18:32:48.361Z,31.88
2022-11-22T18:35:18.257Z,32.67
2022-11-22T18:37:47.767Z,32.78
2022-11-22T18:40:18.584Z,33.07
2022-11-22T18:42:50.751Z,33.70
2022-11-22T18:45:23.427Z,32.05
2022-11-22T18:47:52.878Z,29.73
2022-11-22T18:50:22.495Z,33.63
2022-11-22T18:52:51.916Z,34.03
2022-11-22T18:55:21.833Z,34.58
2022-11-22T18:57:52.999Z,31.52
2022-11-22T19:00:24.736Z,34.97
2022-11-22T19:02:54.069Z,32.67
2022-11-22T19:05:24.720Z,31.50
2022-11-22T19:07:54.331Z,32.17
2022-11-22T19:10:24.513Z,29.73
2022-11-22T19:12:53.736Z,27.88
2022-11-22T19:15:25.359Z,31.92
2022-11-22T19:20:53.424Z,29.73
2022-11-22T19:23:13.768Z,30.67
2022-11-22T19:25:44.315Z,30.40
2022-11-22T19:30:46.459Z,30.42
2022-11-22T19:33:17.504Z,30.25
2022-11-22T19:35:57.885Z,28.65
2022-11-22T19:38:28.521Z,28.75
2022-11-22T19:40:58.485Z,31.02
2022-11-22T19:43:28.057Z,32.17
2022-11-22T19:46:03.655Z,34.40
2022-11-22T19:48:33.947Z,30.75
2022-11-22T19:53:37.409Z,29.98
2022-11-22T19:56:09.091Z,30.63
2022-11-22T19:58:38.963Z,31.48
2022-11-22T20:01:13.857Z,33.17
2022-11-22T20:03:44.585Z,32.67
2022-11-22T20:08:46.286Z,27.23
2022-11-22T20:11:17.945Z,28.85
2022-11-22T20:16:22.322Z,28.33
2022-11-22T20:18:55.535Z,28.50
2022-11-22T20:21:26.739Z,27.70
2022-11-22T20:23:57.118Z,28.15
2022-11-22T20:26:27.277Z,28.67
2022-11-22T20:28:58.304Z,30.88
2022-11-22T20:31:31.713Z,31.58
2022-11-22T20:34:02.174Z,28.95
2022-11-22T20:39:08.338Z,26.90
2022-11-22T20:41:39.752Z,29.65
2022-11-22T20:44:12.780Z,28.27
2022-11-22T20:46:45.499Z,27.77
2022-11-22T20:49:14.862Z,29.05
2022-11-22T20:51:44.987Z,28.77
2022-11-22T20:54:14.587Z,27.35
2022-11-22T20:56:44.227Z,26.60
2022-11-22T20:59:13.486Z,26.65
2022-11-22T21:01:45.336Z,29.05
2022-11-22T21:04:18.851Z,28.30
2022-11-22T21:06:50.974Z,27.65
2022-11-22T21:09:20.404Z,27.10
2022-11-22T21:11:50.376Z,27.77
2022-11-22T21:14:21.192Z,28.25
2022-11-22T21:16:52.266Z,28.23
2022-11-22T21:19:21.580Z,30.48
2022-11-22T21:21:51.427Z,28.60
2022-11-22T21:24:20.647Z,28.23
2022-11-22T21:26:51.633Z,25.48
2022-11-22T21:29:21.135Z,27.70
2022-11-22T21:31:52.482Z,29.52
2022-11-22T21:36:52.060Z,27.83
2022-11-22T21:39:21.345Z,27.65
2022-11-22T21:41:51.520Z,27.80
2022-11-22T21:44:20.822Z,30.40
2022-11-22T21:46:52.520Z,28.50
2022-11-22T21:51:51.401Z,28.38
2022-11-22T21:54:21.016Z,30.42
2022-11-22T21:56:51.001Z,28.70
2022-11-22T21:59:20.474Z,30.20
2022-11-22T22:01:51.639Z,29.52
2022-11-22T22:04:21.083Z,30.13
2022-11-22T22:06:51.061Z,32.00
2022-11-22T22:09:20.560Z,29.40
2022-11-22T22:11:50.568Z,31.90
2022-11-22T22:14:19.863Z,30.90
2022-11-22T22:16:49.801Z,28.42
2022-11-22T22:19:20.809Z,30.00
2022-11-22T22:21:50.637Z,28.38
2022-11-22T22:24:20.118Z,31.55
2022-11-22T22:26:50.180Z,31.03
2022-11-22T22:29:19.633Z,29.52
2022-11-22T22:31:49.366Z,28.60
2022-11-22T22:34:20.276Z,30.38
2022-11-22T22:36:50.086Z,30.88
2022-11-22T22:39:19.428Z,33.17
2022-11-22T22:41:49.623Z,30.67
2022-11-22T22:44:18.867Z,33.30
2022-11-22T22:46:48.503Z,34.20
2022-11-22T22:49:17.900Z,30.23
2022-11-22T22:51:51.682Z,38.13
2022-11-22T22:54:21.161Z,35.42
2022-11-22T22:56:51.052Z,33.03
2022-11-22T22:59:20.684Z,32.85
2022-11-22T23:01:50.536Z,32.53
2022-11-22T23:04:19.851Z,33.83
2022-11-22T23:06:51.290Z,34.10
2022-11-22T23:09:20.958Z,30.70
2022-11-22T23:12:07.819Z,34.63
2022-11-22T23:14:37.051Z,31.95
2022-11-22T23:17:06.747Z,31.40
2022-11-22T23:19:36.335Z,32.35
2022-11-22T23:22:07.704Z,31.83
2022-11-22T23:27:06.428Z,29.58
2022-11-22T23:29:36.267Z,33.53
2022-11-22T23:32:06.642Z,31.88
2022-11-22T23:34:36.212Z,33.88
2022-11-22T23:37:07.304Z,30.33
2022-11-22T23:39:36.622Z,30.02
2022-11-22T23:42:06.727Z,31.48
2022-11-22T23:44:36.023Z,26.77
2022-11-22T23:47:05.974Z,29.20
2022-11-22T23:49:35.265Z,30.83
2022-11-22T23:52:05.037Z,31.98
2022-11-22T23:54:35.787Z,31.33
2022-11-22T23:59:34.532Z,31.20
